createdAt,value
2018-01-11T00:00:37.857Z,29.12
2018-01-11T00:03:04.776Z,26.90
2018-01-11T00:05:31.706Z,26.30
2018-01-11T00:07:58.526Z,26.20
2018-01-11T00:10:25.434Z,28.40
2018-01-11T00:12:52.275Z,24.58
2018-01-11T00:15:19.122Z,26.40
2018-01-11T00:17:46.114Z,27.67
2018-01-11T00:20:12.966Z,28.30
2018-01-11T00:22:40.545Z,28.35
2018-01-11T00:25:07.397Z,29.98
2018-01-11T00:27:34.240Z,28.40
2018-01-11T00:30:01.839Z,26.25
2018-01-11T00:32:29.422Z,29.15
2018-01-11T00:34:57.021Z,28.40
2018-01-11T00:37:23.918Z,31.33
2018-01-11T00:39:50.779Z,29.60
2018-01-11T00:42:18.394Z,27.67
2018-01-11T00:44:45.302Z,28.27
2018-01-11T00:47:12.849Z,27.60
2018-01-11T00:49:40.461Z,27.85
2018-01-11T00:52:07.315Z,28.73
2018-01-11T00:54:34.286Z,28.08
2018-01-11T00:57:01.888Z,28.38
2018-01-11T00:59:28.730Z,27.65
2018-01-11T01:01:55.618Z,26.40
2018-01-11T01:04:22.454Z,28.80
2018-01-11T01:06:49.498Z,26.52
2018-01-11T01:09:16.342Z,25.88
2018-01-11T01:11:43.189Z,27.15
2018-01-11T01:14:10.025Z,24.65
2018-01-11T01:16:36.890Z,23.58
2018-01-11T01:19:03.746Z,24.25
2018-01-11T01:21:30.565Z,23.48
2018-01-11T01:23:57.442Z,23.23
2018-01-11T01:26:25.046Z,24.52
2018-01-11T01:28:51.886Z,22.17
2018-01-11T01:31:18.713Z,23.25
2018-01-11T01:33:45.561Z,23.85
2018-01-11T01:36:12.410Z,24.65
2018-01-11T01:38:39.280Z,22.42
2018-01-11T01:41:06.153Z,23.25
2018-01-11T01:43:33.758Z,22.75
2018-01-11T01:46:00.621Z,22.98
2018-01-11T01:48:39.786Z,21.65
2018-01-11T01:51:07.359Z,24.20
2018-01-11T01:53:34.954Z,23.52
2018-01-11T01:56:01.806Z,21.35
2018-01-11T01:58:28.641Z,23.55
2018-01-11T02:00:55.498Z,21.85
2018-01-11T02:03:23.114Z,21.02
2018-01-11T02:05:49.958Z,20.62
2018-01-11T02:08:16.866Z,23.15
2018-01-11T02:10:43.725Z,21.75
2018-01-11T02:13:10.550Z,20.08
2018-01-11T02:15:37.390Z,20.23
2018-01-11T02:18:04.211Z,22.58
2018-01-11T02:20:31.069Z,21.73
2018-01-11T02:22:57.888Z,19.83
2018-01-11T02:25:24.750Z,23.00
2018-01-11T02:27:51.641Z,21.30
2018-01-11T02:30:18.497Z,19.33
2018-01-11T02:32:45.371Z,20.62
2018-01-11T02:35:12.234Z,19.15
2018-01-11T02:37:39.107Z,20.80
2018-01-11T02:40:06.714Z,20.27
2018-01-11T02:42:33.599Z,18.33
2018-01-11T02:45:00.459Z,19.15
2018-01-11T02:47:27.323Z,19.50
2018-01-11T02:49:54.170Z,20.40
2018-01-11T02:52:21.035Z,18.98
2018-01-11T02:54:47.934Z,19.55
2018-01-11T02:57:15.527Z,19.80
2018-01-11T02:59:42.374Z,19.27
2018-01-11T03:02:09.271Z,18.98
2018-01-11T03:04:36.858Z,18.85
2018-01-11T03:07:03.747Z,20.05
2018-01-11T03:09:30.598Z,17.75
2018-01-11T03:11:58.219Z,18.33
2018-01-11T03:14:25.058Z,20.67
2018-01-11T03:16:51.930Z,19.98
2018-01-11T03:19:18.780Z,19.15
2018-01-11T03:21:45.618Z,19.50
2018-01-11T03:24:12.477Z,21.08
2018-01-11T03:26:40.084Z,19.17
2018-01-11T03:29:06.958Z,18.62
2018-01-11T03:31:33.847Z,21.02
2018-01-11T03:34:00.776Z,19.67
2018-01-11T03:36:27.637Z,20.02
2018-01-11T03:38:54.478Z,20.00
2018-01-11T03:41:21.345Z,18.60
2018-01-11T03:43:48.178Z,20.65
2018-01-11T03:46:15.075Z,18.95
2018-01-11T03:48:41.917Z,19.65
2018-01-11T03:51:08.801Z,20.40
2018-01-11T03:53:35.675Z,19.55
2018-01-11T03:56:02.546Z,18.90
2018-01-11T03:58:30.150Z,20.15
2018-01-11T04:00:57.047Z,19.33
2018-01-11T04:03:23.898Z,17.45
2018-01-11T04:05:51.493Z,20.35
2018-01-11T04:08:18.366Z,18.95
2018-01-11T04:10:45.237Z,19.50
2018-01-11T04:13:12.844Z,17.87
2018-01-11T04:15:39.730Z,18.77
2018-01-11T04:18:06.618Z,19.27
2018-01-11T04:20:33.487Z,18.65
2018-01-11T04:23:00.331Z,19.37
2018-01-11T04:25:27.206Z,19.90
2018-01-11T04:27:54.819Z,19.80
2018-01-11T04:30:21.706Z,17.92
2018-01-11T04:32:48.574Z,19.62
2018-01-11T04:35:16.230Z,17.10
2018-01-11T04:37:43.062Z,16.90
2018-01-11T04:40:09.938Z,15.57
2018-01-11T04:42:36.802Z,15.10
2018-01-11T04:45:04.482Z,14.27
2018-01-11T04:47:31.358Z,14.32
2018-01-11T04:49:58.186Z,14.95
2018-01-11T04:52:25.034Z,16.35
2018-01-11T04:54:51.925Z,14.18
2018-01-11T04:57:18.762Z,15.40
2018-01-11T04:59:45.638Z,16.27
2018-01-11T05:02:12.508Z,14.52
2018-01-11T05:04:39.370Z,14.10
2018-01-11T05:07:06.994Z,13.48
2018-01-11T05:09:33.811Z,12.43
2018-01-11T05:12:00.682Z,13.70
2018-01-11T05:14:27.502Z,12.70
2018-01-11T05:16:54.374Z,11.65
2018-01-11T05:19:21.246Z,12.98
2018-01-11T05:21:48.226Z,13.65
2018-01-11T05:24:15.137Z,14.55
2018-01-11T05:26:42.823Z,13.73
2018-01-11T05:29:09.785Z,14.63
2018-01-11T05:31:36.666Z,12.98
2018-01-11T05:34:03.650Z,14.45
2018-01-11T05:36:31.438Z,12.98
2018-01-11T05:38:59.129Z,13.75
2018-01-11T05:41:26.006Z,14.50
2018-01-11T05:43:53.586Z,13.57
2018-01-11T05:46:20.434Z,12.32
2018-01-11T05:48:47.325Z,12.95
2018-01-11T05:51:14.927Z,13.05
2018-01-11T05:53:41.801Z,12.00
2018-01-11T05:56:08.678Z,12.32
2018-01-11T05:58:35.567Z,12.80
2018-01-11T06:01:03.134Z,14.60
2018-01-11T06:03:30.019Z,13.20
2018-01-11T06:05:56.885Z,12.70
2018-01-11T06:08:23.792Z,12.73
2018-01-11T06:10:50.730Z,13.07
2018-01-11T06:13:17.569Z,14.18
2018-01-11T06:15:44.390Z,13.95
2018-01-11T06:18:12.170Z,14.50
2018-01-11T06:20:39.014Z,12.80
2018-01-11T06:23:05.890Z,12.52
2018-01-11T06:25:32.746Z,12.13
2018-01-11T06:27:59.607Z,12.60
2018-01-11T06:30:26.470Z,12.40
2018-01-11T06:32:53.321Z,12.50
2018-01-11T06:35:20.205Z,12.48
2018-01-11T06:37:47.174Z,12.95
2018-01-11T06:40:14.025Z,14.05
2018-01-11T06:42:41.634Z,12.25
2018-01-11T06:45:08.506Z,11.98
2018-01-11T06:47:35.382Z,12.85
2018-01-11T06:50:03.170Z,13.07
2018-01-11T06:52:30.138Z,14.57
2018-01-11T06:54:57.099Z,12.57
2018-01-11T06:57:23.962Z,13.35
2018-01-11T06:59:50.827Z,13.32
2018-01-11T07:02:17.690Z,13.23
2018-01-11T07:04:44.593Z,15.20
2018-01-11T07:07:11.406Z,15.48
2018-01-11T07:09:38.278Z,14.30
2018-01-11T07:12:05.134Z,13.55
2018-01-11T07:14:31.998Z,14.50
2018-01-11T07:16:58.875Z,13.45
2018-01-11T07:19:25.738Z,12.25
2018-01-11T07:21:52.642Z,13.07
2018-01-11T07:24:19.475Z,15.07
2018-01-11T07:26:46.333Z,13.20
2018-01-11T07:29:13.178Z,13.80
2018-01-11T07:31:40.061Z,12.02
2018-01-11T07:34:06.902Z,14.05
2018-01-11T07:36:33.774Z,13.95
2018-01-11T07:39:01.355Z,12.27
2018-01-11T07:41:28.231Z,11.65
2018-01-11T07:43:55.076Z,12.55
2018-01-11T07:46:21.917Z,13.85
2018-01-11T07:48:48.878Z,12.88
2018-01-11T07:51:15.703Z,13.27
2018-01-11T07:53:42.553Z,12.48
2018-01-11T07:56:11.063Z,17.02
2018-01-11T07:58:38.702Z,13.40
2018-01-11T08:01:05.561Z,15.25
2018-01-11T08:03:32.383Z,14.55
2018-01-11T08:05:59.210Z,14.02
2018-01-11T08:08:26.058Z,13.48
2018-01-11T08:10:52.922Z,13.45
2018-01-11T08:13:19.782Z,15.23
2018-01-11T08:15:47.433Z,12.88
2018-01-11T08:18:15.002Z,12.88
2018-01-11T08:20:42.002Z,13.32
2018-01-11T08:23:08.822Z,13.73
2018-01-11T08:25:35.642Z,14.00
2018-01-11T08:28:02.503Z,14.93
2018-01-11T08:30:29.335Z,12.20
2018-01-11T08:32:56.910Z,12.68
2018-01-11T08:35:23.765Z,11.88
2018-01-11T08:37:50.593Z,13.85
2018-01-11T08:40:17.402Z,11.50
2018-01-11T08:42:45.069Z,11.10
2018-01-11T08:45:12.686Z,12.10
2018-01-11T08:47:39.494Z,11.88
2018-01-11T08:50:06.341Z,11.35
2018-01-11T08:52:33.201Z,11.18
2018-01-11T08:55:00.031Z,11.20
2018-01-11T08:57:26.914Z,10.45
2018-01-11T08:59:53.726Z,10.82
2018-01-11T09:02:20.538Z,12.65
2018-01-11T09:04:48.148Z,12.60
2018-01-11T09:07:15.709Z,10.43
2018-01-11T09:09:42.541Z,11.27
2018-01-11T09:12:09.394Z,11.65
2018-01-11T09:14:36.205Z,11.30
2018-01-11T09:17:03.111Z,12.02
2018-01-11T09:19:30.705Z,9.65
2018-01-11T09:21:58.254Z,10.65
2018-01-11T09:24:25.186Z,11.07
2018-01-11T09:26:52.790Z,10.93
2018-01-11T09:29:19.611Z,11.32
2018-01-11T09:31:46.471Z,12.70
2018-01-11T09:34:13.287Z,11.77
2018-01-11T09:36:40.138Z,11.60
2018-01-11T09:39:07.001Z,11.35
2018-01-11T09:41:33.826Z,11.23
2018-01-11T09:44:00.694Z,11.85
2018-01-11T09:46:27.518Z,12.82
2018-01-11T09:48:54.360Z,12.63
2018-01-11T09:51:21.848Z,12.65
2018-01-11T09:53:48.693Z,11.23
2018-01-11T09:56:15.584Z,10.27
2018-01-11T09:58:43.130Z,11.45
2018-01-11T10:01:10.045Z,10.70
2018-01-11T10:03:36.877Z,10.65
2018-01-11T10:06:04.454Z,10.65
2018-01-11T10:08:31.317Z,10.52
2018-01-11T10:10:58.929Z,10.48
2018-01-11T10:13:25.738Z,11.12
2018-01-11T10:15:52.606Z,10.95
2018-01-11T10:18:19.474Z,10.73
2018-01-11T10:20:46.338Z,12.00
2018-01-11T10:23:13.901Z,12.88
2018-01-11T10:25:40.755Z,10.50
2018-01-11T10:28:08.361Z,10.40
2018-01-11T10:30:35.205Z,10.85
2018-01-11T10:33:02.058Z,12.45
2018-01-11T10:35:28.890Z,11.50
2018-01-11T10:37:55.779Z,11.45
2018-01-11T10:40:23.362Z,10.48
2018-01-11T10:42:50.193Z,11.50
2018-01-11T10:45:17.839Z,12.45
2018-01-11T10:47:45.452Z,12.70
2018-01-11T10:50:12.330Z,12.10
2018-01-11T10:52:39.248Z,10.95
2018-01-11T10:55:06.141Z,10.75
2018-01-11T10:57:33.761Z,11.12
2018-01-11T11:00:00.642Z,11.70
2018-01-11T11:02:34.364Z,14.55
2018-01-11T11:05:01.946Z,12.05
2018-01-11T11:07:28.773Z,11.80
2018-01-11T11:09:56.350Z,12.18
2018-01-11T11:12:23.194Z,11.65
2018-01-11T11:14:50.070Z,10.45
2018-01-11T11:17:16.887Z,12.90
2018-01-11T11:19:43.695Z,11.00
2018-01-11T11:22:10.574Z,11.27
2018-01-11T11:24:37.362Z,13.73
2018-01-11T11:27:05.005Z,12.70
2018-01-11T11:29:32.074Z,12.25
2018-01-11T11:31:59.098Z,13.50
2018-01-11T11:34:25.915Z,14.02
2018-01-11T11:36:52.742Z,15.00
2018-01-11T11:39:19.597Z,12.23
2018-01-11T11:41:46.442Z,13.30
2018-01-11T11:44:13.305Z,12.75
2018-01-11T11:46:40.110Z,13.13
2018-01-11T11:49:07.678Z,12.60
2018-01-11T11:51:34.546Z,13.48
2018-01-11T11:54:01.354Z,14.80
2018-01-11T11:56:28.265Z,13.05
2018-01-11T11:58:55.833Z,15.45
2018-01-11T12:01:23.450Z,23.45
2018-01-11T12:03:50.336Z,17.73
2018-01-11T12:06:17.193Z,18.52
2018-01-11T12:08:44.066Z,14.48
2018-01-11T12:11:10.934Z,13.88
2018-01-11T12:13:37.846Z,16.23
2018-01-11T12:16:04.674Z,15.68
2018-01-11T12:18:31.491Z,16.33
2018-01-11T12:20:59.107Z,14.85
2018-01-11T12:23:25.975Z,14.15
2018-01-11T12:25:52.798Z,14.77
2018-01-11T12:28:19.618Z,13.88
2018-01-11T12:30:46.486Z,15.07
2018-01-11T12:33:14.037Z,14.73
2018-01-11T12:35:40.902Z,17.40
2018-01-11T12:38:07.765Z,17.50
2018-01-11T12:40:35.325Z,15.90
2018-01-11T12:43:02.950Z,16.80
2018-01-11T12:45:29.772Z,18.20
2018-01-11T12:47:56.606Z,17.40
2018-01-11T12:50:23.493Z,19.83
2018-01-11T12:52:50.305Z,17.00
2018-01-11T12:55:17.253Z,17.60
2018-01-11T12:57:44.085Z,17.42
2018-01-11T13:00:10.921Z,17.45
2018-01-11T13:02:37.854Z,18.52
2018-01-11T13:05:04.781Z,17.10
2018-01-11T13:07:32.346Z,16.70
2018-01-11T13:09:59.286Z,12.65
2018-01-11T13:12:26.862Z,9.50
2018-01-11T13:14:53.713Z,9.63
2018-01-11T13:17:20.654Z,7.75
2018-01-11T13:19:47.493Z,9.43
2018-01-11T13:22:14.335Z,9.95
2018-01-11T13:24:41.341Z,11.05
2018-01-11T13:27:08.223Z,10.57
2018-01-11T13:29:35.166Z,9.68
2018-01-11T13:32:02.258Z,9.60
2018-01-11T13:34:29.190Z,10.13
2018-01-11T13:36:56.206Z,9.48
2018-01-11T13:39:23.077Z,8.65
2018-01-11T13:41:49.919Z,8.95
2018-01-11T13:44:16.867Z,8.00
2018-01-11T13:46:43.813Z,7.03
2018-01-11T13:49:10.697Z,7.32
2018-01-11T13:51:37.534Z,7.65
2018-01-11T13:54:04.426Z,8.35
2018-01-11T13:56:31.270Z,8.55
2018-01-11T13:58:58.109Z,11.98
2018-01-11T14:01:25.017Z,14.20
2018-01-11T14:03:51.846Z,14.77
2018-01-11T14:06:18.746Z,15.38
2018-01-11T14:08:46.390Z,17.77
2018-01-11T14:11:13.286Z,16.67
2018-01-11T14:13:40.154Z,17.83
2018-01-11T14:16:07.029Z,17.25
2018-01-11T14:18:33.903Z,17.33
2018-01-11T14:21:00.774Z,17.77
2018-01-11T14:23:27.629Z,17.50
2018-01-11T14:25:55.214Z,19.15
2018-01-11T14:28:22.066Z,17.65
2018-01-11T14:30:48.934Z,17.20
2018-01-11T14:33:15.791Z,17.87
2018-01-11T14:35:42.650Z,16.65
2018-01-11T14:38:09.506Z,17.23
2018-01-11T14:40:37.096Z,15.90
2018-01-11T14:43:04.681Z,17.10
2018-01-11T14:45:31.561Z,17.50
2018-01-11T14:47:58.446Z,17.80
2018-01-11T14:50:25.307Z,17.83
2018-01-11T14:52:52.154Z,19.45
2018-01-11T14:55:19.013Z,19.73
2018-01-11T14:57:45.894Z,24.42
2018-01-11T15:00:12.757Z,21.42
2018-01-11T15:02:40.361Z,27.13
2018-01-11T15:05:07.224Z,19.85
2018-01-11T15:07:34.817Z,22.67
2018-01-11T15:10:01.667Z,17.77
2018-01-11T15:12:28.490Z,19.65
2018-01-11T15:14:56.141Z,20.30
2018-01-11T15:17:23.746Z,18.40
2018-01-11T15:19:56.704Z,19.35
2018-01-11T15:22:23.729Z,20.12
2018-01-11T15:24:50.671Z,20.33
2018-01-11T15:27:18.274Z,19.77
2018-01-11T15:29:45.122Z,17.65
2018-01-11T15:32:12.129Z,20.20
2018-01-11T15:34:39.790Z,18.90
2018-01-11T15:37:07.413Z,17.80
2018-01-11T15:39:34.235Z,19.20
2018-01-11T15:42:01.078Z,18.62
2018-01-11T15:44:27.963Z,19.20
2018-01-11T15:46:55.097Z,19.08
2018-01-11T15:49:23.537Z,19.25
2018-01-11T15:51:51.258Z,18.90
2018-01-11T15:54:18.362Z,19.65
2018-01-11T15:56:45.470Z,19.70
2018-01-11T15:59:12.446Z,19.55
2018-01-11T16:01:39.523Z,21.35
2018-01-11T16:04:06.502Z,19.95
2018-01-11T16:06:34.569Z,20.80
2018-01-11T16:09:02.506Z,19.23
2018-01-11T16:11:30.150Z,17.62
2018-01-11T16:13:57.013Z,17.50
2018-01-11T16:16:24.718Z,20.23
2018-01-11T16:18:51.550Z,18.70
2018-01-11T16:21:18.446Z,19.73
2018-01-11T16:23:45.313Z,18.58
2018-01-11T16:26:12.298Z,20.20
2018-01-11T16:28:39.982Z,21.05
2018-01-11T16:31:06.846Z,22.65
2018-01-11T16:33:34.466Z,20.20
2018-01-11T16:36:02.126Z,19.08
2018-01-11T16:38:29.110Z,21.30
2018-01-11T16:40:55.943Z,20.65
2018-01-11T16:43:23.205Z,17.50
2018-01-11T16:45:50.346Z,18.33
2018-01-11T16:48:17.342Z,20.08
2018-01-11T16:50:44.335Z,17.80
2018-01-11T16:53:11.986Z,20.25
2018-01-11T16:55:39.078Z,20.35
2018-01-11T16:58:06.125Z,19.00
2018-01-11T17:00:33.899Z,19.17
2018-01-11T17:03:00.834Z,19.87
2018-01-11T17:05:28.786Z,22.17
2018-01-11T17:07:55.855Z,20.17
2018-01-11T17:10:22.923Z,20.60
2018-01-11T17:12:50.870Z,20.37
2018-01-11T17:15:17.990Z,21.37
2018-01-11T17:17:45.063Z,18.77
2018-01-11T17:20:11.925Z,21.10
2018-01-11T17:22:38.783Z,20.88
2018-01-11T17:25:05.717Z,19.50
2018-01-11T17:27:33.371Z,19.37
2018-01-11T17:30:00.221Z,17.92
2018-01-11T17:32:27.806Z,19.65
2018-01-11T17:34:55.410Z,20.75
2018-01-11T17:37:22.403Z,19.55
2018-01-11T17:39:49.311Z,19.48
2018-01-11T17:42:16.362Z,20.23
2018-01-11T17:44:44.132Z,20.92
2018-01-11T17:47:11.362Z,19.95
2018-01-11T17:49:38.196Z,18.98
2018-01-11T17:52:05.242Z,18.08
2018-01-11T17:54:33.071Z,17.87
2018-01-11T17:57:00.166Z,19.55
2018-01-11T17:59:27.047Z,18.05
2018-01-11T18:01:55.897Z,18.73
2018-01-11T18:04:22.833Z,19.12
2018-01-11T18:06:49.754Z,18.17
2018-01-11T18:09:16.850Z,17.02
2018-01-11T18:11:44.854Z,17.48
2018-01-11T18:14:12.718Z,18.05
2018-01-11T18:16:41.202Z,16.85
2018-01-11T18:19:08.074Z,16.87
2018-01-11T18:21:35.733Z,17.70
2018-01-11T18:24:02.778Z,21.00
2018-01-11T18:26:29.842Z,18.05
2018-01-11T18:28:56.710Z,19.50
2018-01-11T18:31:23.795Z,18.58
2018-01-11T18:33:50.906Z,18.87
2018-01-11T18:36:18.651Z,18.00
2018-01-11T18:38:45.610Z,21.00
2018-01-11T18:41:13.310Z,19.55
2018-01-11T18:43:40.506Z,23.27
2018-01-11T18:46:07.671Z,21.67
2018-01-11T18:48:35.379Z,21.30
2018-01-11T18:51:02.446Z,24.83
2018-01-11T18:53:29.410Z,27.55
2018-01-11T18:55:56.497Z,27.50
2018-01-11T18:58:23.630Z,29.55
2018-01-11T19:00:50.666Z,29.60
2018-01-11T19:03:17.722Z,28.77
2018-01-11T19:05:44.701Z,31.92
2018-01-11T19:08:11.565Z,30.75
2018-01-11T19:10:39.294Z,32.03
2018-01-11T19:13:06.399Z,33.40
2018-01-11T19:15:33.499Z,34.33
2018-01-11T19:18:01.158Z,32.92
2018-01-11T19:20:28.182Z,32.15
2018-01-11T19:22:55.011Z,34.83
2018-01-11T19:25:22.002Z,32.40
2018-01-11T19:27:48.975Z,32.30
2018-01-11T19:30:15.802Z,34.88
2018-01-11T19:32:43.405Z,35.92
2018-01-11T19:35:10.375Z,32.85
2018-01-11T19:37:37.257Z,36.35
2018-01-11T19:40:04.855Z,32.83
2018-01-11T19:42:31.998Z,37.65
2018-01-11T19:44:59.058Z,39.47
2018-01-11T19:47:25.915Z,40.55
2018-01-11T19:49:52.798Z,35.35
2018-01-11T19:52:19.864Z,38.05
2018-01-11T19:54:46.753Z,38.80
2018-01-11T19:57:13.667Z,41.00
2018-01-11T19:59:40.833Z,41.37
2018-01-11T20:02:07.951Z,39.63
2018-01-11T20:04:34.974Z,39.80
2018-01-11T20:07:02.214Z,42.95
2018-01-11T20:09:29.138Z,40.20
2018-01-11T20:11:56.091Z,40.60
2018-01-11T20:14:23.098Z,40.45
2018-01-11T20:16:50.282Z,40.38
2018-01-11T20:19:17.400Z,36.30
2018-01-11T20:21:44.286Z,38.72
2018-01-11T20:24:11.298Z,33.75
2018-01-11T20:26:39.047Z,28.77
2018-01-11T20:29:07.038Z,28.55
2018-01-11T20:31:34.146Z,30.67
2018-01-11T20:34:01.312Z,29.87
2018-01-11T20:36:29.185Z,24.75
2018-01-11T20:38:56.260Z,28.48
2018-01-11T20:41:23.955Z,28.58
2018-01-11T20:43:50.810Z,26.85
2018-01-11T20:46:17.958Z,28.05
2018-01-11T20:48:44.843Z,25.55
2018-01-11T20:51:11.912Z,25.75
2018-01-11T20:53:39.050Z,26.55
2018-01-11T20:56:06.219Z,29.25
2018-01-11T20:58:33.223Z,31.77
2018-01-11T21:01:00.230Z,33.63
2018-01-11T21:03:27.246Z,34.08
2018-01-11T21:05:54.331Z,32.00
2018-01-11T21:08:21.847Z,29.33
2018-01-11T21:10:48.886Z,27.30
2018-01-11T21:13:15.963Z,26.37
2018-01-11T21:15:43.098Z,29.20
2018-01-11T21:18:12.650Z,24.85
2018-01-11T21:20:39.548Z,26.00
2018-01-11T21:23:06.483Z,26.40
2018-01-11T21:25:33.446Z,25.08
2018-01-11T21:28:00.520Z,25.40
2018-01-11T21:30:27.542Z,24.83
2018-01-11T21:32:55.418Z,26.10
2018-01-11T21:35:23.099Z,23.90
2018-01-11T21:37:50.731Z,23.05
2018-01-11T21:40:17.767Z,24.55
2018-01-11T21:42:44.615Z,24.40
2018-01-11T21:45:11.498Z,24.00
2018-01-11T21:47:38.721Z,25.58
2018-01-11T21:50:05.890Z,24.45
2018-01-11T21:52:32.796Z,23.90
2018-01-11T21:54:59.650Z,25.20
2018-01-11T21:57:26.699Z,25.42
2018-01-11T21:59:54.498Z,26.48
2018-01-11T22:02:21.422Z,28.90
2018-01-11T22:04:48.492Z,26.42
2018-01-11T22:07:16.262Z,26.42
2018-01-11T22:09:43.998Z,26.00
2018-01-11T22:12:10.874Z,26.30
2018-01-11T22:14:38.476Z,27.75
2018-01-11T22:17:06.559Z,27.52
2018-01-11T22:19:33.702Z,26.65
2018-01-11T22:22:01.370Z,24.60
2018-01-11T22:24:28.417Z,25.30
2018-01-11T22:26:55.662Z,24.25
2018-01-11T22:29:22.809Z,28.80
2018-01-11T22:31:49.726Z,28.62
2018-01-11T22:34:16.920Z,30.23
2018-01-11T22:36:44.046Z,29.25
2018-01-11T22:39:11.082Z,30.37
2018-01-11T22:41:38.098Z,28.25
2018-01-11T22:44:05.831Z,25.85
2018-01-11T22:46:33.010Z,25.10
2018-01-11T22:49:00.051Z,25.15
2018-01-11T22:51:27.102Z,23.08
2018-01-11T22:53:53.926Z,22.45
2018-01-11T22:56:20.908Z,22.30
2018-01-11T22:58:48.522Z,22.33
2018-01-11T23:01:15.555Z,21.70
2018-01-11T23:03:42.621Z,24.25
2018-01-11T23:06:09.606Z,27.15
2018-01-11T23:08:37.414Z,26.20
2018-01-11T23:11:04.350Z,27.15
2018-01-11T23:13:31.410Z,23.33
2018-01-11T23:15:59.345Z,23.90
2018-01-11T23:18:26.462Z,24.92
2018-01-11T23:20:54.227Z,22.45
2018-01-11T23:23:21.959Z,27.87
2018-01-11T23:25:49.048Z,28.65
2018-01-11T23:28:16.157Z,26.08
2018-01-11T23:30:42.974Z,26.80
2018-01-11T23:33:10.039Z,25.27
2018-01-11T23:35:37.123Z,24.85
2018-01-11T23:38:04.019Z,24.02
2018-01-11T23:40:31.175Z,23.87
2018-01-11T23:42:58.314Z,30.23
2018-01-11T23:45:26.038Z,25.98
2018-01-11T23:47:53.878Z,26.77
2018-01-11T23:50:20.798Z,25.55
2018-01-11T23:52:47.634Z,24.63
2018-01-11T23:55:14.687Z,25.48
2018-01-11T23:57:41.718Z,24.65
